»·PEaware :: N316AS KSMO-KVNY

N316AS :: KSMO-KVNY

FLIGHT INFORMATION

Flight Status: Arrived
Operator: Privately registered:
United States
More flights under this callsign
Pilot: Aero Safety Training (369)
Aircraft: CESSNA 172 SKYHAWK
(C172)
More flights by this aircraft type
Origin: KSMO Santa Monica Mun
United States
Destination: KVNY Van Nuys
United States
More flights between these airports :: More routes between these airports
Route: SMO SMO317R CANOG
File this flight plan on PilotEdge
Remarks: TEC route SMON2. practice approaches.
Altitude:
(Current/Filed)
30ft
Speed:
(Current/Filed)
110kts
Departed: 19-Oct-14 08:00 AM
Arrived: 19-Oct-14 08:24 AM
Distance/Time
Traveled:
12nm/0:24
Distance/Time
To Go:
Arrived

Flight Plot

Page will automatically refresh every two minutes.


Map Options




Map Legend


Flown Route
Filed Route
Departure Airport
Arrival Airport
Navaid (VOR, NDB)
Fix

Horizontal Profiles

Position Reports

Time Latitude Longitude Heading Altitude Ground
Speed
19-Oct-14 07:33 34.016943 -118.452775 212 178ft 0kts
19-Oct-14 07:34 34.016941 -118.452777 212 178ft 0kts
19-Oct-14 07:35 34.016938 -118.452779 212 178ft 0kts
19-Oct-14 07:36 34.016935 -118.452781 212 178ft 0kts
19-Oct-14 07:37 34.016933 -118.452783 212 178ft 0kts
19-Oct-14 07:38 34.016930 -118.452786 212 178ft 0kts
19-Oct-14 07:39 34.016927 -118.452788 212 178ft 0kts
19-Oct-14 07:40 34.016924 -118.452790 212 178ft 0kts
19-Oct-14 07:41 34.016921 -118.452792 212 178ft 0kts
19-Oct-14 07:42 34.016919 -118.452794 212 178ft 0kts
19-Oct-14 07:43 34.016916 -118.452796 211 178ft 0kts
19-Oct-14 07:44 34.016913 -118.452799 211 178ft 0kts
19-Oct-14 07:45 34.016910 -118.452801 211 178ft 0kts
19-Oct-14 07:46 34.016907 -118.452803 211 178ft 0kts
19-Oct-14 07:47 34.016904 -118.452805 211 178ft 0kts
19-Oct-14 07:48 34.016902 -118.452807 211 178ft 0kts
19-Oct-14 07:49 34.016899 -118.452809 211 178ft 0kts
19-Oct-14 07:50 34.016896 -118.452811 211 178ft 0kts
19-Oct-14 07:51 34.016893 -118.452813 211 178ft 0kts
19-Oct-14 07:52 34.016871 -118.452830 208 178ft 1kts
19-Oct-14 07:53 34.017581 -118.450366 44 178ft 20kts
19-Oct-14 07:54 34.020801 -118.446617 74 178ft 0kts
19-Oct-14 07:55 34.020806 -118.446597 73 178ft 0kts
19-Oct-14 07:56 34.020800 -118.446207 133 178ft 0kts
19-Oct-14 07:57 34.020798 -118.446204 133 178ft 0kts
19-Oct-14 07:58 34.020795 -118.446201 133 178ft 0kts
19-Oct-14 07:59 34.018947 -118.447600 224 178ft 53kts
19-Oct-14 08:00 34.004626 -118.464256 220 873ft 78kts
19-Oct-14 08:01 33.988585 -118.484178 255 1844ft 86kts
19-Oct-14 08:02 33.985274 -118.512883 263 2806ft 84kts
19-Oct-14 08:03 33.981723 -118.546616 280 3504ft 105kts
19-Oct-14 08:04 33.998398 -118.543715 79 4022ft 97kts
19-Oct-14 08:05 33.986992 -118.526853 232 4042ft 98kts
19-Oct-14 08:06 33.983245 -118.561163 264 4069ft 107kts
19-Oct-14 08:07 33.998286 -118.583566 353 4127ft 107kts
19-Oct-14 08:08 34.028526 -118.586115 355 4097ft 105kts
19-Oct-14 08:09 34.058044 -118.589480 354 4145ft 100kts
19-Oct-14 08:10 34.087701 -118.594702 351 4038ft 109kts
19-Oct-14 08:11 34.117134 -118.599950 351 4111ft 104kts
19-Oct-14 08:12 34.134703 -118.620936 282 4143ft 103kts
19-Oct-14 08:13 34.141123 -118.655706 282 4031ft 107kts
19-Oct-14 08:14 34.160053 -118.673099 2 4026ft 102kts
19-Oct-14 08:15 34.188629 -118.671537 2 4006ft 102kts
19-Oct-14 08:16 34.214162 -118.663018 61 4030ft 98kts
19-Oct-14 08:17 34.227156 -118.632671 69 4021ft 101kts
19-Oct-14 08:18 34.224231 -118.601546 96 3935ft 83kts
19-Oct-14 08:19 34.225347 -118.572163 92 3136ft 87kts
19-Oct-14 08:20 34.223515 -118.542508 94 2392ft 86kts
19-Oct-14 08:21 34.224573 -118.513782 91 1764ft 76kts
19-Oct-14 08:22 34.221004 -118.492225 144 1015ft 61kts
19-Oct-14 08:23 34.212104 -118.491198 264 805ft 11kts
19-Oct-14 08:24 34.212096 -118.491324 265 805ft 0kts
19-Oct-14 08:25 34.212096 -118.491326 265 805ft 0kts
19-Oct-14 08:26 34.212096 -118.491338 265 805ft 1kts
19-Oct-14 08:27 34.216262 -118.493223 270 805ft 8kts
19-Oct-14 08:28 34.215982 -118.493472 190 805ft 0kts

Navigation Log

Ident Type
1. KSMO Airport
2. SMO Navaid
3. CANOG Fix
4. KVNY Airport